SHMÚ vydal meteorologické výstrahy na Búrky Zobraziť výstrahy

TAF

Letisková predpoveď TAF

Informácie o správe TAF

27.06.2016 - 11:00 UTC

TAF LZSL 271100Z 2712/2721 20004KT 9999 SCT045
    TEMPO 2712/2721 SHRA FEW035CB BKN045
    TEMPO 2712/2718 34015KT 6000 TSRA SCT030CB BKN035=
TAF LZPP 271100Z 2712/2721 34012KT 9999 SCT030 BKN060
    TEMPO 2712/2718 SHRA SCT015 FEW030CB BKN035=
TAF LZZI 271100Z 2712/2721 04008KT 9999 BKN030
    TEMPO 2715/2720 SHRA BKN030 FEW033CB
    TEMPO 2715/2718 6000 TSRA SCT015 BKN025 SCT028CB=

27.06.2016 - 11:00 UTC

TAF LZIB 271100Z 2712/2812 30015KT 9999 FEW020 BKN040
    TEMPO 2712/2718 31016G28KT SHRA FEW015 FEW025CB BKN030
    BECMG 2718/2720 CAVOK=
TAF LZKZ 271100Z 2712/2812 01015KT 9999 SCT040 BKN100
    TEMPO 2712/2720 SHRA FEW035CB BKN045
    PROB40 TEMPO 2712/2716 02025KT 6000 TSRA SCT030CB BKN040
    TEMPO 2720/2810 -RA SCT015 BKN025=
TAF LZTT 271100Z 2712/2812 06008KT 9999 SCT020 BKN060
    TEMPO 2712/2724 SHRA SCT012 FEW035CB BKN040
    TEMPO 2712/2718 VRB20KT 6000 TSRA SCT008 SCT030CB BKN033=

27.06.2016 - 11:00 UTC

TAF LZSL 271100Z 2712/2721 20004KT 9999 SCT045
    TEMPO 2712/2721 SHRA FEW035CB BKN045
    TEMPO 2712/2718 34015KT 6000 TSRA SCT030CB BKN035=
TAF LZPP 271100Z 2712/2721 34012KT 9999 SCT030 BKN060
    TEMPO 2712/2718 SHRA SCT015 FEW030CB BKN035=
TAF LZZI 271100Z 2712/2721 04008KT 9999 BKN030
    TEMPO 2715/2720 SHRA BKN030 FEW033CB
    TEMPO 2715/2718 6000 TSRA SCT015 BKN025 SCT028CB=

27.06.2016 - 08:00 UTC

TAF AMD LZSL 271047Z 2710/2718 20003KT 9999 SCT040
    TEMPO 2710/2718 SHRA FEW040CB BKN045
    TEMPO 2710/2716 34015KT 6000 TSRA FEW015 SCT030CB BKN035=

27.06.2016 - 05:00 UTC

TAF AMD LZIB 270813Z 2708/2806 30015KT 9999 BKN010 BKN040
    BECMG 2708/2710 SCT015 BKN050
    TEMPO 2708/2716 31016G28KT SHRA FEW025CB BKN030
    BECMG 2716/2718 32010KT CAVOK=

27.06.2016 - 08:00 UTC

TAF LZSL 270800Z 2709/2718 14003KT 9999 SCT040
    TEMPO 2709/2718 32006KT SHRA SCT015 BKN033 SCT045CB=
TAF LZPP 270800Z 2709/2718 35010KT 9999 SCT050
    PROB40 TEMPO 2709/2718 01015KT SHRA SCT015 BKN030 SCT040CB=
TAF LZZI 270800Z 2709/2718 04004KT 9999 BKN027
    PROB40 TEMPO 2709/2718 02008KT SHRA SCT015 BKN030 SCT040CB=

27.06.2016 - 08:00 UTC

TAF LZSL 270800Z 2709/2718 14003KT 9999 SCT040
    TEMPO 2709/2718 32006KT SHRA SCT015 BKN033 SCT045CB=
TAF LZPP 270800Z 2709/2718 35010KT 9999 SCT050
    PROB40 TEMPO 2709/2718 01015KT SHRA SCT015 BKN030 SCT040CB=
TAF LZZI 270800Z 2709/2718 04004KT 9999 BKN027
    PROB40 TEMPO 2709/2718 02008KT SHRA SCT015 BKN030 SCT040CB=

27.06.2016 - 05:00 UTC

TAF LZSL 270500Z 2706/2715 14004KT 9999 SCT040
    TEMPO 2708/2715 32006KT SHRA SCT015 BKN033 SCT045CB=
TAF LZPP 270500Z 2706/2715 35010KT 9999 SCT050
    PROB40 TEMPO 2709/2715 01015KT SHRA SCT015 BKN030 SCT040CB=
TAF LZZI 270500Z 2706/2715 04004KT 9999 BKN035
    PROB40 TEMPO 2709/2715 02008KT SHRA SCT015 BKN030 SCT040CB=

27.06.2016 - 05:00 UTC

TAF LZIB 270500Z 2706/2806 31008KT 9999 FEW040 SCT100
    BECMG 2706/2708 31015KT SCT030 BKN070
    TEMPO 2708/2716 31016G28KT
    TEMPO 2709/2712 SHRA FEW025CB BKN030
    BECMG 2716/2718 32010KT CAVOK=
TAF LZKZ 270500Z 2706/2806 01010KT 9999 SCT040
    TEMPO 2706/2707 32020KT 1200 TSRA SCT010 BKN020CB BKN030
    TEMPO 2707/2724 01018KT -SHRA FEW030CB BKN040
    PROB40 TEMPO 2709/2716 02025KT 6000 TSRA SCT033CB BKN045=
TAF LZTT 270500Z 2706/2806 06005KT 9999 SCT040 BKN080
    TEMPO 2706/2708 VRB20KT 5000 TSRA BKN010 BKN025 SCT030CB
    TEMPO 2708/2724 09015KT -SHRA SCT020 FEW030CB
    PROB40 TEMPO 2711/2716 VRB20KT TSRA BKN014 SCT030CB=

27.06.2016 - 05:00 UTC

TAF LZSL 270500Z 2706/2715 14004KT 9999 SCT040
    TEMPO 2708/2715 32006KT SHRA SCT015 BKN033 SCT045CB=
TAF LZPP 270500Z 2706/2715 35010KT 9999 SCT050
    PROB40 TEMPO 2709/2715 01015KT SHRA SCT015 BKN030 SCT040CB=
TAF LZZI 270500Z 2706/2715 04004KT 9999 BKN035
    PROB40 TEMPO 2709/2715 02008KT SHRA SCT015 BKN030 SCT040CB=

27.06.2016 - 02:00 UTC

TAF LZSL 270200Z 2703/2712 29004KT 9999 FEW050
    PROB30 TEMPO 2703/2705 30015KT 5000 TSRA SCT010 BKN033CB BKN050
    TEMPO 2703/2705 VRB02KT 2500 BR SCT003=
TAF LZZI 270200Z 2703/2712 04004KT 9999 BKN030
    TEMPO 2703/2705 VRB02KT 2500 BR SCT003=

27.06.2016 - 02:00 UTC

TAF LZSL 270200Z 2703/2712 29004KT 9999 FEW050
    PROB30 TEMPO 2703/2705 30015KT 5000 TSRA SCT010 BKN033CB BKN050
    TEMPO 2703/2705 VRB02KT 2500 BR SCT003=
TAF LZZI 270200Z 2703/2712 04004KT 9999 BKN030
    TEMPO 2703/2705 VRB02KT 2500 BR SCT003=

skok na menu ↑


skok na začiatok stránky ↑